sensor_id;sensor_type;location;lat;lon;timestamp;P1;durP1;ratioP1;P2;durP2;ratioP2
10667;SDS011;5382;42.136;24.796;2022-11-15T00:00:15;31.15;;;19.25;;
10667;SDS011;5382;42.136;24.796;2022-11-15T00:02:42;30.73;;;20.23;;
10667;SDS011;5382;42.136;24.796;2022-11-15T00:05:09;29.65;;;19.05;;
10667;SDS011;5382;42.136;24.796;2022-11-15T00:07:35;32.28;;;19.55;;
10667;SDS011;5382;42.136;24.796;2022-11-15T00:10:02;28.92;;;19.40;;
10667;SDS011;5382;42.136;24.796;2022-11-15T00:12:29;32.58;;;20.15;;
10667;SDS011;5382;42.136;24.796;2022-11-15T00:14:56;28.40;;;19.65;;
10667;SDS011;5382;42.136;24.796;2022-11-15T00:17:24;30.30;;;19.05;;
10667;SDS011;5382;42.136;24.796;2022-11-15T00:19:51;36.10;;;23.73;;
10667;SDS011;5382;42.136;24.796;2022-11-15T00:22:18;34.75;;;24.45;;
10667;SDS011;5382;42.136;24.796;2022-11-15T00:24:45;38.65;;;24.52;;
10667;SDS011;5382;42.136;24.796;2022-11-15T00:27:12;34.42;;;22.10;;
10667;SDS011;5382;42.136;24.796;2022-11-15T00:29:39;36.83;;;23.90;;
10667;SDS011;5382;42.136;24.796;2022-11-15T00:32:08;39.88;;;24.05;;
10667;SDS011;5382;42.136;24.796;2022-11-15T00:34:36;39.58;;;24.20;;
10667;SDS011;5382;42.136;24.796;2022-11-15T00:37:03;40.22;;;24.08;;
10667;SDS011;5382;42.136;24.796;2022-11-15T00:39:30;39.95;;;24.73;;
10667;SDS011;5382;42.136;24.796;2022-11-15T00:41:56;42.17;;;24.02;;
10667;SDS011;5382;42.136;24.796;2022-11-15T00:44:23;44.00;;;25.77;;
10667;SDS011;5382;42.136;24.796;2022-11-15T00:46:50;37.40;;;25.63;;
10667;SDS011;5382;42.136;24.796;2022-11-15T00:49:17;42.40;;;24.67;;
10667;SDS011;5382;42.136;24.796;2022-11-15T00:51:45;40.25;;;25.70;;
10667;SDS011;5382;42.136;24.796;2022-11-15T00:54:12;43.47;;;25.20;;
10667;SDS011;5382;42.136;24.796;2022-11-15T00:56:39;39.17;;;24.65;;
10667;SDS011;5382;42.136;24.796;2022-11-15T00:59:05;41.40;;;24.95;;
10667;SDS011;5382;42.136;24.796;2022-11-15T01:01:32;39.67;;;25.77;;
10667;SDS011;5382;42.136;24.796;2022-11-15T01:03:59;41.22;;;25.45;;
10667;SDS011;5382;42.136;24.796;2022-11-15T01:06:26;43.45;;;26.13;;
10667;SDS011;5382;42.136;24.796;2022-11-15T01:08:54;42.25;;;25.98;;
10667;SDS011;5382;42.136;24.796;2022-11-15T01:11:21;43.97;;;25.30;;
10667;SDS011;5382;42.136;24.796;2022-11-15T01:13:47;42.17;;;24.35;;
10667;SDS011;5382;42.136;24.796;2022-11-15T01:16:15;37.42;;;25.10;;
10667;SDS011;5382;42.136;24.796;2022-11-15T01:18:43;38.20;;;24.52;;
10667;SDS011;5382;42.136;24.796;2022-11-15T01:21:12;37.35;;;23.98;;
10667;SDS011;5382;42.136;24.796;2022-11-15T01:23:41;38.38;;;24.42;;
10667;SDS011;5382;42.136;24.796;2022-11-15T01:26:11;39.50;;;23.35;;
10667;SDS011;5382;42.136;24.796;2022-11-15T01:28:39;44.42;;;24.63;;
10667;SDS011;5382;42.136;24.796;2022-11-15T01:31:09;35.10;;;22.25;;
10667;SDS011;5382;42.136;24.796;2022-11-15T01:33:38;43.20;;;23.45;;
10667;SDS011;5382;42.136;24.796;2022-11-15T01:36:05;35.25;;;22.10;;
10667;SDS011;5382;42.136;24.796;2022-11-15T01:38:34;36.65;;;21.38;;
10667;SDS011;5382;42.136;24.796;2022-11-15T01:41:00;39.65;;;23.75;;
10667;SDS011;5382;42.136;24.796;2022-11-15T01:43:30;36.72;;;22.50;;
10667;SDS011;5382;42.136;24.796;2022-11-15T01:46:00;39.90;;;22.92;;
10667;SDS011;5382;42.136;24.796;2022-11-15T01:48:31;36.22;;;23.40;;
10667;SDS011;5382;42.136;24.796;2022-11-15T01:50:59;34.15;;;22.73;;
10667;SDS011;5382;42.136;24.796;2022-11-15T01:53:28;35.90;;;22.55;;
10667;SDS011;5382;42.136;24.796;2022-11-15T01:55:56;40.72;;;24.45;;
10667;SDS011;5382;42.136;24.796;2022-11-15T01:58:24;33.17;;;21.67;;
10667;SDS011;5382;42.136;24.796;2022-11-15T02:00:52;36.38;;;21.73;;
10667;SDS011;5382;42.136;24.796;2022-11-15T02:03:19;30.90;;;18.92;;
10667;SDS011;5382;42.136;24.796;2022-11-15T02:05:48;33.80;;;19.05;;
10667;SDS011;5382;42.136;24.796;2022-11-15T02:08:17;30.65;;;19.38;;
10667;SDS011;5382;42.136;24.796;2022-11-15T02:10:46;28.38;;;16.25;;
10667;SDS011;5382;42.136;24.796;2022-11-15T02:13:13;29.33;;;17.83;;
10667;SDS011;5382;42.136;24.796;2022-11-15T02:15:42;25.15;;;16.02;;
10667;SDS011;5382;42.136;24.796;2022-11-15T02:18:21;25.30;;;17.17;;
10667;SDS011;5382;42.136;24.796;2022-11-15T02:20:55;25.38;;;16.40;;
10667;SDS011;5382;42.136;24.796;2022-11-15T02:26:43;25.23;;;16.35;;
10667;SDS011;5382;42.136;24.796;2022-11-15T02:29:42;25.63;;;15.73;;
10667;SDS011;5382;42.136;24.796;2022-11-15T02:32:29;29.73;;;17.20;;
10667;SDS011;5382;42.136;24.796;2022-11-15T02:35:04;27.02;;;16.58;;
10667;SDS011;5382;42.136;24.796;2022-11-15T02:37:39;25.05;;;15.98;;
10667;SDS011;5382;42.136;24.796;2022-11-15T02:40:12;31.17;;;16.58;;
10667;SDS011;5382;42.136;24.796;2022-11-15T02:42:45;26.50;;;15.73;;
10667;SDS011;5382;42.136;24.796;2022-11-15T02:45:35;27.85;;;16.63;;
10667;SDS011;5382;42.136;24.796;2022-11-15T02:48:07;27.35;;;16.27;;
10667;SDS011;5382;42.136;24.796;2022-11-15T02:50:36;25.17;;;16.00;;
10667;SDS011;5382;42.136;24.796;2022-11-15T02:53:03;24.02;;;16.50;;
10667;SDS011;5382;42.136;24.796;2022-11-15T02:55:31;26.15;;;16.10;;
10667;SDS011;5382;42.136;24.796;2022-11-15T02:58:09;26.05;;;16.05;;
10667;SDS011;5382;42.136;24.796;2022-11-15T03:00:48;28.85;;;15.50;;
10667;SDS011;5382;42.136;24.796;2022-11-15T03:03:39;26.92;;;16.63;;
10667;SDS011;5382;42.136;24.796;2022-11-15T03:06:20;27.23;;;16.13;;
10667;SDS011;5382;42.136;24.796;2022-11-15T03:08:57;23.92;;;15.75;;
10667;SDS011;5382;42.136;24.796;2022-11-15T03:11:29;24.83;;;15.80;;
10667;SDS011;5382;42.136;24.796;2022-11-15T03:14:00;26.30;;;16.27;;
10667;SDS011;5382;42.136;24.796;2022-11-15T03:16:32;29.38;;;16.95;;
10667;SDS011;5382;42.136;24.796;2022-11-15T03:19:04;26.30;;;16.85;;
10667;SDS011;5382;42.136;24.796;2022-11-15T03:21:36;25.20;;;16.92;;
10667;SDS011;5382;42.136;24.796;2022-11-15T03:24:05;24.30;;;16.23;;
10667;SDS011;5382;42.136;24.796;2022-11-15T03:26:34;26.83;;;15.90;;
10667;SDS011;5382;42.136;24.796;2022-11-15T03:29:06;23.48;;;15.45;;
10667;SDS011;5382;42.136;24.796;2022-11-15T03:31:38;27.63;;;16.00;;
10667;SDS011;5382;42.136;24.796;2022-11-15T03:34:19;21.08;;;14.35;;
10667;SDS011;5382;42.136;24.796;2022-11-15T03:36:50;27.60;;;16.60;;
10667;SDS011;5382;42.136;24.796;2022-11-15T03:39:18;23.63;;;15.90;;
10667;SDS011;5382;42.136;24.796;2022-11-15T03:41:47;23.42;;;16.42;;
10667;SDS011;5382;42.136;24.796;2022-11-15T03:44:20;26.45;;;16.48;;
10667;SDS011;5382;42.136;24.796;2022-11-15T03:46:58;23.70;;;15.95;;
10667;SDS011;5382;42.136;24.796;2022-11-15T03:49:32;26.05;;;15.68;;
10667;SDS011;5382;42.136;24.796;2022-11-15T03:52:00;26.05;;;16.45;;
10667;SDS011;5382;42.136;24.796;2022-11-15T03:54:29;30.55;;;17.00;;
10667;SDS011;5382;42.136;24.796;2022-11-15T03:56:56;30.02;;;16.70;;
10667;SDS011;5382;42.136;24.796;2022-11-15T03:59:23;23.95;;;15.98;;
10667;SDS011;5382;42.136;24.796;2022-11-15T04:01:50;24.73;;;15.32;;
10667;SDS011;5382;42.136;24.796;2022-11-15T04:04:16;26.90;;;15.55;;
10667;SDS011;5382;42.136;24.796;2022-11-15T04:06:44;21.48;;;13.52;;
10667;SDS011;5382;42.136;24.796;2022-11-15T04:09:11;24.35;;;14.27;;
10667;SDS011;5382;42.136;24.796;2022-11-15T04:11:38;26.60;;;14.77;;
10667;SDS011;5382;42.136;24.796;2022-11-15T04:14:05;21.85;;;13.98;;
10667;SDS011;5382;42.136;24.796;2022-11-15T04:16:32;22.38;;;13.23;;
10667;SDS011;5382;42.136;24.796;2022-11-15T04:18:58;22.55;;;12.88;;
10667;SDS011;5382;42.136;24.796;2022-11-15T04:21:44;22.63;;;13.45;;
10667;SDS011;5382;42.136;24.796;2022-11-15T04:24:28;21.23;;;14.05;;
10667;SDS011;5382;42.136;24.796;2022-11-15T04:26:55;20.92;;;13.05;;
10667;SDS011;5382;42.136;24.796;2022-11-15T04:29:21;23.33;;;14.20;;
10667;SDS011;5382;42.136;24.796;2022-11-15T04:32:00;24.67;;;14.25;;
10667;SDS011;5382;42.136;24.796;2022-11-15T04:34:28;20.58;;;13.35;;
10667;SDS011;5382;42.136;24.796;2022-11-15T04:36:56;20.15;;;13.07;;
10667;SDS011;5382;42.136;24.796;2022-11-15T04:39:38;24.08;;;14.40;;
10667;SDS011;5382;42.136;24.796;2022-11-15T04:42:05;20.98;;;13.70;;
10667;SDS011;5382;42.136;24.796;2022-11-15T04:44:32;22.65;;;13.65;;
10667;SDS011;5382;42.136;24.796;2022-11-15T04:46:59;21.00;;;13.90;;
10667;SDS011;5382;42.136;24.796;2022-11-15T04:49:26;21.33;;;12.65;;
10667;SDS011;5382;42.136;24.796;2022-11-15T04:51:53;18.65;;;13.18;;
10667;SDS011;5382;42.136;24.796;2022-11-15T04:54:21;20.83;;;12.00;;
10667;SDS011;5382;42.136;24.796;2022-11-15T04:56:48;21.10;;;13.00;;
10667;SDS011;5382;42.136;24.796;2022-11-15T04:59:15;19.63;;;11.93;;
10667;SDS011;5382;42.136;24.796;2022-11-15T05:01:42;19.65;;;13.65;;
10667;SDS011;5382;42.136;24.796;2022-11-15T05:04:08;19.27;;;12.57;;
10667;SDS011;5382;42.136;24.796;2022-11-15T05:06:47;21.40;;;13.20;;
10667;SDS011;5382;42.136;24.796;2022-11-15T05:09:14;20.42;;;14.23;;
10667;SDS011;5382;42.136;24.796;2022-11-15T05:11:43;22.95;;;13.57;;
10667;SDS011;5382;42.136;24.796;2022-11-15T05:14:10;21.63;;;14.18;;
10667;SDS011;5382;42.136;24.796;2022-11-15T05:16:37;23.92;;;13.60;;
10667;SDS011;5382;42.136;24.796;2022-11-15T05:19:04;19.77;;;12.55;;
10667;SDS011;5382;42.136;24.796;2022-11-15T05:21:32;20.67;;;11.57;;
10667;SDS011;5382;42.136;24.796;2022-11-15T05:23:59;21.10;;;13.30;;
10667;SDS011;5382;42.136;24.796;2022-11-15T05:26:26;20.92;;;12.68;;
10667;SDS011;5382;42.136;24.796;2022-11-15T05:28:55;27.38;;;14.68;;
10667;SDS011;5382;42.136;24.796;2022-11-15T05:31:23;21.42;;;13.50;;
10667;SDS011;5382;42.136;24.796;2022-11-15T05:33:50;19.83;;;15.00;;
10667;SDS011;5382;42.136;24.796;2022-11-15T05:36:19;31.30;;;15.65;;
10667;SDS011;5382;42.136;24.796;2022-11-15T05:38:52;27.42;;;16.08;;
10667;SDS011;5382;42.136;24.796;2022-11-15T05:41:20;26.25;;;15.65;;
10667;SDS011;5382;42.136;24.796;2022-11-15T05:43:51;26.60;;;16.15;;
10667;SDS011;5382;42.136;24.796;2022-11-15T05:46:20;24.63;;;15.38;;
10667;SDS011;5382;42.136;24.796;2022-11-15T05:48:48;26.75;;;15.93;;
10667;SDS011;5382;42.136;24.796;2022-11-15T05:51:17;26.45;;;15.98;;
10667;SDS011;5382;42.136;24.796;2022-11-15T05:53:47;22.80;;;14.77;;
10667;SDS011;5382;42.136;24.796;2022-11-15T05:56:14;29.50;;;16.67;;
10667;SDS011;5382;42.136;24.796;2022-11-15T05:58:42;31.27;;;16.52;;
10667;SDS011;5382;42.136;24.796;2022-11-15T06:01:09;22.80;;;15.30;;
10667;SDS011;5382;42.136;24.796;2022-11-15T06:03:37;24.98;;;14.88;;
10667;SDS011;5382;42.136;24.796;2022-11-15T06:06:04;24.10;;;15.35;;
10667;SDS011;5382;42.136;24.796;2022-11-15T06:08:31;26.83;;;16.02;;
10667;SDS011;5382;42.136;24.796;2022-11-15T06:11:02;25.42;;;15.45;;
10667;SDS011;5382;42.136;24.796;2022-11-15T06:13:30;21.92;;;14.15;;
10667;SDS011;5382;42.136;24.796;2022-11-15T06:15:57;25.10;;;15.15;;
10667;SDS011;5382;42.136;24.796;2022-11-15T06:18:24;25.90;;;14.38;;
10667;SDS011;5382;42.136;24.796;2022-11-15T06:20:52;26.38;;;14.93;;
10667;SDS011;5382;42.136;24.796;2022-11-15T06:23:19;33.33;;;14.77;;
10667;SDS011;5382;42.136;24.796;2022-11-15T06:25:46;22.63;;;14.18;;
10667;SDS011;5382;42.136;24.796;2022-11-15T06:28:13;23.17;;;14.48;;
10667;SDS011;5382;42.136;24.796;2022-11-15T06:30:39;22.88;;;14.68;;
10667;SDS011;5382;42.136;24.796;2022-11-15T06:33:06;29.67;;;15.27;;
10667;SDS011;5382;42.136;24.796;2022-11-15T06:35:34;22.30;;;13.98;;
10667;SDS011;5382;42.136;24.796;2022-11-15T06:38:04;27.60;;;14.27;;
10667;SDS011;5382;42.136;24.796;2022-11-15T06:40:35;25.67;;;14.05;;
10667;SDS011;5382;42.136;24.796;2022-11-15T06:43:03;23.58;;;14.05;;
10667;SDS011;5382;42.136;24.796;2022-11-15T06:45:30;21.25;;;13.77;;
10667;SDS011;5382;42.136;24.796;2022-11-15T06:47:57;18.67;;;11.43;;
10667;SDS011;5382;42.136;24.796;2022-11-15T06:50:24;23.90;;;11.73;;
10667;SDS011;5382;42.136;24.796;2022-11-15T06:52:51;18.80;;;11.75;;
10667;SDS011;5382;42.136;24.796;2022-11-15T06:55:20;21.02;;;12.80;;
10667;SDS011;5382;42.136;24.796;2022-11-15T06:57:48;23.35;;;18.45;;
10667;SDS011;5382;42.136;24.796;2022-11-15T07:00:16;23.85;;;16.13;;
10667;SDS011;5382;42.136;24.796;2022-11-15T07:02:43;18.33;;;15.45;;
10667;SDS011;5382;42.136;24.796;2022-11-15T07:05:10;21.83;;;13.43;;
10667;SDS011;5382;42.136;24.796;2022-11-15T07:07:37;19.95;;;12.05;;
10667;SDS011;5382;42.136;24.796;2022-11-15T07:10:04;20.27;;;13.73;;
10667;SDS011;5382;42.136;24.796;2022-11-15T07:12:33;22.60;;;11.43;;
10667;SDS011;5382;42.136;24.796;2022-11-15T07:15:00;16.90;;;11.85;;
10667;SDS011;5382;42.136;24.796;2022-11-15T07:17:28;19.85;;;12.02;;
10667;SDS011;5382;42.136;24.796;2022-11-15T07:19:54;19.85;;;13.57;;
10667;SDS011;5382;42.136;24.796;2022-11-15T07:22:21;19.17;;;13.02;;
10667;SDS011;5382;42.136;24.796;2022-11-15T07:24:48;15.48;;;11.27;;
10667;SDS011;5382;42.136;24.796;2022-11-15T07:27:15;17.10;;;11.55;;
10667;SDS011;5382;42.136;24.796;2022-11-15T07:29:43;18.85;;;11.63;;
10667;SDS011;5382;42.136;24.796;2022-11-15T07:32:09;19.65;;;12.20;;
10667;SDS011;5382;42.136;24.796;2022-11-15T07:34:36;20.77;;;12.48;;
10667;SDS011;5382;42.136;24.796;2022-11-15T07:37:03;21.73;;;13.65;;
10667;SDS011;5382;42.136;24.796;2022-11-15T07:39:30;21.38;;;14.63;;
10667;SDS011;5382;42.136;24.796;2022-11-15T07:42:02;16.55;;;11.43;;
10667;SDS011;5382;42.136;24.796;2022-11-15T08:00:46;22.92;;;12.75;;
10667;SDS011;5382;42.136;24.796;2022-11-15T08:03:23;23.73;;;11.77;;
10667;SDS011;5382;42.136;24.796;2022-11-15T08:06:13;21.80;;;12.15;;
10667;SDS011;5382;42.136;24.796;2022-11-15T08:09:36;23.95;;;12.85;;
10667;SDS011;5382;42.136;24.796;2022-11-15T08:12:23;22.45;;;13.05;;
10667;SDS011;5382;42.136;24.796;2022-11-15T08:14:59;25.83;;;13.45;;
10667;SDS011;5382;42.136;24.796;2022-11-15T08:17:40;18.48;;;13.93;;
10667;SDS011;5382;42.136;24.796;2022-11-15T08:20:10;24.13;;;14.48;;
10667;SDS011;5382;42.136;24.796;2022-11-15T08:22:59;21.40;;;15.27;;
10667;SDS011;5382;42.136;24.796;2022-11-15T08:25:50;23.98;;;16.65;;
10667;SDS011;5382;42.136;24.796;2022-11-15T08:28:38;24.60;;;15.48;;
10667;SDS011;5382;42.136;24.796;2022-11-15T08:34:27;22.70;;;13.80;;
10667;SDS011;5382;42.136;24.796;2022-11-15T08:37:11;23.05;;;12.82;;
10667;SDS011;5382;42.136;24.796;2022-11-15T08:40:07;22.65;;;12.73;;
10667;SDS011;5382;42.136;24.796;2022-11-15T08:42:40;23.40;;;19.58;;
10667;SDS011;5382;42.136;24.796;2022-11-15T08:45:28;27.73;;;20.23;;
10667;SDS011;5382;42.136;24.796;2022-11-15T08:50:59;23.75;;;17.33;;
10667;SDS011;5382;42.136;24.796;2022-11-15T08:53:42;21.50;;;16.75;;
10667;SDS011;5382;42.136;24.796;2022-11-15T08:56:25;25.05;;;16.50;;
10667;SDS011;5382;42.136;24.796;2022-11-15T08:59:06;23.55;;;16.10;;
10667;SDS011;5382;42.136;24.796;2022-11-15T09:01:54;22.90;;;17.60;;
10667;SDS011;5382;42.136;24.796;2022-11-15T09:04:27;24.58;;;18.63;;
10667;SDS011;5382;42.136;24.796;2022-11-15T09:07:08;23.10;;;19.00;;
10667;SDS011;5382;42.136;24.796;2022-11-15T09:09:48;24.88;;;18.13;;
10667;SDS011;5382;42.136;24.796;2022-11-15T09:12:49;22.65;;;18.30;;
10667;SDS011;5382;42.136;24.796;2022-11-15T09:15:32;23.42;;;14.90;;
10667;SDS011;5382;42.136;24.796;2022-11-15T09:18:13;26.25;;;18.95;;
10667;SDS011;5382;42.136;24.796;2022-11-15T09:24:12;26.73;;;19.27;;
10667;SDS011;5382;42.136;24.796;2022-11-15T09:26:39;23.45;;;19.13;;
10667;SDS011;5382;42.136;24.796;2022-11-15T10:52:48;28.48;;;18.88;;
10667;SDS011;5382;42.136;24.796;2022-11-15T10:55:21;20.27;;;18.08;;
10667;SDS011;5382;42.136;24.796;2022-11-15T10:57:52;21.63;;;17.90;;
10667;SDS011;5382;42.136;24.796;2022-11-15T11:00:28;18.02;;;16.23;;
10667;SDS011;5382;42.136;24.796;2022-11-15T11:02:57;17.27;;;15.48;;
10667;SDS011;5382;42.136;24.796;2022-11-15T11:05:26;18.73;;;16.85;;
10667;SDS011;5382;42.136;24.796;2022-11-15T11:07:58;18.13;;;16.23;;
10667;SDS011;5382;42.136;24.796;2022-11-15T11:10:27;20.73;;;18.58;;
10667;SDS011;5382;42.136;24.796;2022-11-15T11:12:54;18.67;;;16.85;;
10667;SDS011;5382;42.136;24.796;2022-11-15T11:15:22;19.25;;;17.00;;
10667;SDS011;5382;42.136;24.796;2022-11-15T11:17:57;20.85;;;17.10;;
10667;SDS011;5382;42.136;24.796;2022-11-15T11:20:36;19.42;;;17.52;;
10667;SDS011;5382;42.136;24.796;2022-11-15T11:23:17;18.38;;;16.10;;
10667;SDS011;5382;42.136;24.796;2022-11-15T11:26:09;18.67;;;16.77;;
10667;SDS011;5382;42.136;24.796;2022-11-15T11:28:47;20.80;;;18.58;;
10667;SDS011;5382;42.136;24.796;2022-11-15T11:31:23;20.45;;;17.70;;
10667;SDS011;5382;42.136;24.796;2022-11-15T11:33:57;19.08;;;16.83;;
10667;SDS011;5382;42.136;24.796;2022-11-15T11:36:40;19.70;;;17.67;;
10667;SDS011;5382;42.136;24.796;2022-11-15T11:39:21;18.25;;;16.30;;
10667;SDS011;5382;42.136;24.796;2022-11-15T11:41:59;22.23;;;17.45;;
10667;SDS011;5382;42.136;24.796;2022-11-15T11:44:35;19.50;;;17.50;;
10667;SDS011;5382;42.136;24.796;2022-11-15T11:47:14;20.08;;;17.98;;
10667;SDS011;5382;42.136;24.796;2022-11-15T11:49:50;19.13;;;17.23;;
10667;SDS011;5382;42.136;24.796;2022-11-15T11:52:21;20.02;;;17.88;;
10667;SDS011;5382;42.136;24.796;2022-11-15T11:54:59;19.13;;;16.70;;
10667;SDS011;5382;42.136;24.796;2022-11-15T11:57:34;28.25;;;18.35;;
10667;SDS011;5382;42.136;24.796;2022-11-15T12:00:13;19.02;;;17.02;;
10667;SDS011;5382;42.136;24.796;2022-11-15T12:02:45;18.73;;;17.02;;
10667;SDS011;5382;42.136;24.796;2022-11-15T12:05:18;17.73;;;16.13;;
10667;SDS011;5382;42.136;24.796;2022-11-15T12:07:52;22.42;;;18.48;;
10667;SDS011;5382;42.136;24.796;2022-11-15T12:10:24;20.23;;;18.33;;
10667;SDS011;5382;42.136;24.796;2022-11-15T12:12:56;20.02;;;18.02;;
10667;SDS011;5382;42.136;24.796;2022-11-15T12:15:37;19.73;;;17.65;;
10667;SDS011;5382;42.136;24.796;2022-11-15T12:18:09;19.98;;;17.88;;
10667;SDS011;5382;42.136;24.796;2022-11-15T12:20:47;19.75;;;17.65;;
10667;SDS011;5382;42.136;24.796;2022-11-15T12:23:20;20.30;;;17.88;;
10667;SDS011;5382;42.136;24.796;2022-11-15T12:25:55;18.30;;;16.35;;
10667;SDS011;5382;42.136;24.796;2022-11-15T12:28:29;18.58;;;16.77;;
10667;SDS011;5382;42.136;24.796;2022-11-15T12:31:04;19.95;;;18.05;;
10667;SDS011;5382;42.136;24.796;2022-11-15T12:33:40;19.92;;;17.83;;
10667;SDS011;5382;42.136;24.796;2022-11-15T12:36:09;22.33;;;18.23;;
10667;SDS011;5382;42.136;24.796;2022-11-15T12:41:25;19.27;;;17.38;;
10667;SDS011;5382;42.136;24.796;2022-11-15T12:43:53;20.55;;;18.45;;
10667;SDS011;5382;42.136;24.796;2022-11-15T12:46:21;18.80;;;17.00;;
10667;SDS011;5382;42.136;24.796;2022-11-15T12:49:10;18.77;;;16.88;;
10667;SDS011;5382;42.136;24.796;2022-11-15T12:54:52;21.35;;;19.15;;
10667;SDS011;5382;42.136;24.796;2022-11-15T12:57:26;20.13;;;17.95;;
10667;SDS011;5382;42.136;24.796;2022-11-15T12:59:59;20.05;;;17.95;;
10667;SDS011;5382;42.136;24.796;2022-11-15T13:02:29;27.83;;;18.73;;
10667;SDS011;5382;42.136;24.796;2022-11-15T13:07:58;19.88;;;17.88;;
10667;SDS011;5382;42.136;24.796;2022-11-15T13:10:29;20.20;;;18.20;;
10667;SDS011;5382;42.136;24.796;2022-11-15T13:12:59;21.23;;;18.13;;
10667;SDS011;5382;42.136;24.796;2022-11-15T13:15:31;21.27;;;18.38;;
10667;SDS011;5382;42.136;24.796;2022-11-15T13:18:23;20.83;;;18.55;;
10667;SDS011;5382;42.136;24.796;2022-11-15T13:20:54;20.05;;;17.95;;
10667;SDS011;5382;42.136;24.796;2022-11-15T13:23:21;20.13;;;18.05;;
10667;SDS011;5382;42.136;24.796;2022-11-15T13:26:02;30.95;;;18.23;;
10667;SDS011;5382;42.136;24.796;2022-11-15T13:28:42;27.58;;;24.73;;
10667;SDS011;5382;42.136;24.796;2022-11-15T13:34:01;23.63;;;21.13;;
10667;SDS011;5382;42.136;24.796;2022-11-15T13:36:40;23.45;;;20.92;;
10667;SDS011;5382;42.136;24.796;2022-11-15T13:39:12;22.75;;;20.48;;
10667;SDS011;5382;42.136;24.796;2022-11-15T13:41:50;23.25;;;20.83;;
10667;SDS011;5382;42.136;24.796;2022-11-15T13:44:20;22.80;;;20.40;;
10667;SDS011;5382;42.136;24.796;2022-11-15T13:46:48;24.00;;;21.35;;
10667;SDS011;5382;42.136;24.796;2022-11-15T13:49:15;23.90;;;21.40;;
10667;SDS011;5382;42.136;24.796;2022-11-15T13:51:42;23.45;;;20.95;;
10667;SDS011;5382;42.136;24.796;2022-11-15T13:54:14;25.23;;;20.85;;
10667;SDS011;5382;42.136;24.796;2022-11-15T13:56:47;21.95;;;19.65;;
10667;SDS011;5382;42.136;24.796;2022-11-15T13:59:17;25.05;;;21.45;;
10667;SDS011;5382;42.136;24.796;2022-11-15T14:01:50;24.40;;;21.75;;
10667;SDS011;5382;42.136;24.796;2022-11-15T14:04:18;25.42;;;20.80;;
10667;SDS011;5382;42.136;24.796;2022-11-15T14:06:49;24.75;;;22.15;;
10667;SDS011;5382;42.136;24.796;2022-11-15T14:09:32;22.85;;;20.42;;
10667;SDS011;5382;42.136;24.796;2022-11-15T14:12:02;26.70;;;21.65;;
10667;SDS011;5382;42.136;24.796;2022-11-15T14:14:49;23.00;;;20.70;;
10667;SDS011;5382;42.136;24.796;2022-11-15T14:17:19;23.20;;;20.70;;
10667;SDS011;5382;42.136;24.796;2022-11-15T14:19:48;27.45;;;22.20;;
10667;SDS011;5382;42.136;24.796;2022-11-15T14:22:17;24.60;;;21.50;;
10667;SDS011;5382;42.136;24.796;2022-11-15T14:24:47;24.50;;;21.90;;
10667;SDS011;5382;42.136;24.796;2022-11-15T14:27:32;25.65;;;22.67;;
10667;SDS011;5382;42.136;24.796;2022-11-15T14:30:01;26.88;;;21.95;;
10667;SDS011;5382;42.136;24.796;2022-11-15T14:32:29;24.88;;;18.02;;
10667;SDS011;5382;42.136;24.796;2022-11-15T14:35:11;28.30;;;22.38;;
10667;SDS011;5382;42.136;24.796;2022-11-15T14:37:42;25.48;;;22.10;;
10667;SDS011;5382;42.136;24.796;2022-11-15T14:40:11;24.33;;;18.20;;
10667;SDS011;5382;42.136;24.796;2022-11-15T14:42:39;26.52;;;17.48;;
10667;SDS011;5382;42.136;24.796;2022-11-15T14:45:10;29.77;;;24.00;;
10667;SDS011;5382;42.136;24.796;2022-11-15T14:47:39;32.67;;;23.20;;
10667;SDS011;5382;42.136;24.796;2022-11-15T14:50:10;25.02;;;17.55;;
10667;SDS011;5382;42.136;24.796;2022-11-15T14:52:38;29.38;;;19.50;;
10667;SDS011;5382;42.136;24.796;2022-11-15T14:55:10;27.65;;;19.95;;
10667;SDS011;5382;42.136;24.796;2022-11-15T14:57:42;26.02;;;19.48;;
10667;SDS011;5382;42.136;24.796;2022-11-15T15:00:13;28.75;;;19.77;;
10667;SDS011;5382;42.136;24.796;2022-11-15T15:02:40;27.85;;;18.40;;
10667;SDS011;5382;42.136;24.796;2022-11-15T15:05:15;31.33;;;22.95;;
10667;SDS011;5382;42.136;24.796;2022-11-15T15:07:43;31.45;;;25.13;;
10667;SDS011;5382;42.136;24.796;2022-11-15T15:10:10;31.90;;;20.95;;
10667;SDS011;5382;42.136;24.796;2022-11-15T15:12:38;35.97;;;20.85;;
10667;SDS011;5382;42.136;24.796;2022-11-15T15:15:05;36.70;;;19.48;;
10667;SDS011;5382;42.136;24.796;2022-11-15T15:17:39;34.65;;;21.85;;
10667;SDS011;5382;42.136;24.796;2022-11-15T15:20:08;34.53;;;20.90;;
10667;SDS011;5382;42.136;24.796;2022-11-15T15:22:35;35.00;;;20.42;;
10667;SDS011;5382;42.136;24.796;2022-11-15T15:25:02;34.70;;;21.85;;
10667;SDS011;5382;42.136;24.796;2022-11-15T15:27:29;36.85;;;21.40;;
10667;SDS011;5382;42.136;24.796;2022-11-15T15:29:56;34.65;;;22.35;;
10667;SDS011;5382;42.136;24.796;2022-11-15T15:32:22;33.25;;;20.92;;
10667;SDS011;5382;42.136;24.796;2022-11-15T15:34:51;35.33;;;21.48;;
10667;SDS011;5382;42.136;24.796;2022-11-15T15:37:22;35.97;;;21.40;;
10667;SDS011;5382;42.136;24.796;2022-11-15T15:39:50;38.00;;;22.33;;
10667;SDS011;5382;42.136;24.796;2022-11-15T15:42:17;37.35;;;22.35;;
10667;SDS011;5382;42.136;24.796;2022-11-15T15:44:44;45.55;;;23.17;;
10667;SDS011;5382;42.136;24.796;2022-11-15T15:47:11;36.70;;;22.88;;
10667;SDS011;5382;42.136;24.796;2022-11-15T15:49:39;37.35;;;23.98;;
10667;SDS011;5382;42.136;24.796;2022-11-15T15:52:08;37.05;;;21.38;;
10667;SDS011;5382;42.136;24.796;2022-11-15T15:54:35;37.08;;;21.85;;
10667;SDS011;5382;42.136;24.796;2022-11-15T15:57:02;34.60;;;20.52;;
10667;SDS011;5382;42.136;24.796;2022-11-15T15:59:30;30.73;;;19.90;;
10667;SDS011;5382;42.136;24.796;2022-11-15T16:01:57;33.38;;;21.52;;
10667;SDS011;5382;42.136;24.796;2022-11-15T16:04:23;42.45;;;22.65;;
10667;SDS011;5382;42.136;24.796;2022-11-15T16:06:51;34.25;;;21.60;;
10667;SDS011;5382;42.136;24.796;2022-11-15T16:09:21;39.28;;;23.38;;
10667;SDS011;5382;42.136;24.796;2022-11-15T16:12:08;33.70;;;22.58;;
10667;SDS011;5382;42.136;24.796;2022-11-15T16:14:35;35.00;;;21.15;;
10667;SDS011;5382;42.136;24.796;2022-11-15T16:17:03;35.63;;;22.45;;
10667;SDS011;5382;42.136;24.796;2022-11-15T16:19:30;53.33;;;24.67;;
10667;SDS011;5382;42.136;24.796;2022-11-15T16:21:57;48.50;;;23.88;;
10667;SDS011;5382;42.136;24.796;2022-11-15T16:24:25;39.58;;;22.58;;
10667;SDS011;5382;42.136;24.796;2022-11-15T16:26:52;39.00;;;21.65;;
10667;SDS011;5382;42.136;24.796;2022-11-15T16:29:18;41.38;;;22.90;;
10667;SDS011;5382;42.136;24.796;2022-11-15T16:31:45;37.85;;;23.08;;
10667;SDS011;5382;42.136;24.796;2022-11-15T16:34:12;41.70;;;23.20;;
10667;SDS011;5382;42.136;24.796;2022-11-15T16:36:39;38.55;;;23.02;;
10667;SDS011;5382;42.136;24.796;2022-11-15T16:39:06;38.38;;;22.98;;
10667;SDS011;5382;42.136;24.796;2022-11-15T16:41:42;41.35;;;23.63;;
10667;SDS011;5382;42.136;24.796;2022-11-15T16:44:11;40.20;;;25.02;;
10667;SDS011;5382;42.136;24.796;2022-11-15T16:46:38;40.92;;;22.90;;
10667;SDS011;5382;42.136;24.796;2022-11-15T16:49:08;42.90;;;23.52;;